createdAt,value
2023-05-22T00:01:57.744Z,71.40
2023-05-22T00:04:31.095Z,71.60
2023-05-22T00:07:00.135Z,71.20
2023-05-22T00:09:29.148Z,71.20
2023-05-22T00:11:58.206Z,71.30
2023-05-22T00:14:27.225Z,71.00
2023-05-22T00:16:57.544Z,71.00
2023-05-22T00:19:26.545Z,70.90
2023-05-22T00:21:55.493Z,70.80
2023-05-22T00:24:24.501Z,70.50
2023-05-22T00:26:53.476Z,70.40
2023-05-22T00:29:22.578Z,70.40
2023-05-22T00:31:51.575Z,70.40
2023-05-22T00:34:20.998Z,70.50
2023-05-22T00:36:49.985Z,70.70
2023-05-22T00:39:19.001Z,70.10
2023-05-22T00:41:48.150Z,70.30
2023-05-22T00:44:18.177Z,70.10
2023-05-22T00:46:47.354Z,70.30
2023-05-22T00:49:16.399Z,70.10
2023-05-22T00:51:45.473Z,70.10
2023-05-22T00:54:15.328Z,70.10
2023-05-22T00:56:44.717Z,69.90
2023-05-22T00:59:13.888Z,69.30
2023-05-22T01:01:44.108Z,69.30
2023-05-22T01:04:14.196Z,68.90
2023-05-22T01:06:43.387Z,68.90
2023-05-22T01:09:12.500Z,68.70
2023-05-22T01:12:06.266Z,68.40
2023-05-22T01:15:09.656Z,69.00
2023-05-22T01:17:50.079Z,68.90
2023-05-22T01:20:39.049Z,68.60
2023-05-22T01:23:33.426Z,68.50
2023-05-22T01:26:24.638Z,68.10
2023-05-22T01:29:05.720Z,68.10
2023-05-22T01:31:41.172Z,68.00
2023-05-22T01:34:13.853Z,67.80
2023-05-22T01:36:47.414Z,67.70
2023-05-22T01:39:17.617Z,67.50
2023-05-22T01:41:47.228Z,67.30
2023-05-22T01:44:17.018Z,67.20
2023-05-22T01:46:46.036Z,66.90
2023-05-22T01:49:15.118Z,67.10
2023-05-22T01:52:01.992Z,67.00
2023-05-22T01:54:51.631Z,66.60
2023-05-22T01:57:38.685Z,66.50
2023-05-22T02:00:18.283Z,66.50
2023-05-22T02:02:53.209Z,66.50
2023-05-22T02:05:25.048Z,66.20
2023-05-22T02:07:58.000Z,66.10
2023-05-22T02:10:29.334Z,65.90
2023-05-22T02:12:58.921Z,65.70
2023-05-22T02:15:28.077Z,65.60
2023-05-22T02:17:58.061Z,65.40
2023-05-22T02:20:27.034Z,65.20
2023-05-22T02:22:56.076Z,65.30
2023-05-22T02:25:25.089Z,65.00
2023-05-22T02:27:54.209Z,64.90
2023-05-22T02:30:23.685Z,64.80
2023-05-22T02:32:52.807Z,64.60
2023-05-22T02:35:21.931Z,64.20
2023-05-22T02:37:51.289Z,63.80
2023-05-22T02:40:20.422Z,63.80
2023-05-22T02:42:49.656Z,63.70
2023-05-22T02:45:19.300Z,63.50
2023-05-22T02:47:48.379Z,63.30
2023-05-22T02:50:17.682Z,63.10
2023-05-22T02:52:46.843Z,63.20
2023-05-22T02:55:15.843Z,63.00
2023-05-22T02:57:44.886Z,63.00
2023-05-22T03:00:14.429Z,62.80
2023-05-22T03:02:43.768Z,62.40
2023-05-22T03:05:12.832Z,62.40
2023-05-22T03:07:42.314Z,62.20
2023-05-22T03:10:11.640Z,62.00
2023-05-22T03:12:40.673Z,61.90
2023-05-22T03:15:10.281Z,61.30
2023-05-22T03:17:39.396Z,61.30
2023-05-22T03:20:09.947Z,61.30
2023-05-22T03:22:39.200Z,60.90
2023-05-22T03:25:10.603Z,61.80
2023-05-22T03:27:44.889Z,60.70
2023-05-22T03:30:14.433Z,60.30
2023-05-22T03:32:43.573Z,60.10
2023-05-22T03:35:14.245Z,59.70
2023-05-22T03:37:43.482Z,59.70
2023-05-22T03:40:12.939Z,59.50
2023-05-22T03:42:42.019Z,59.50
2023-05-22T03:45:11.564Z,59.30
2023-05-22T03:47:40.614Z,59.20
2023-05-22T03:50:10.054Z,59.20
2023-05-22T03:52:39.049Z,59.60
2023-05-22T03:55:09.036Z,58.90
2023-05-22T03:57:38.110Z,58.20
2023-05-22T04:00:10.779Z,58.20
2023-05-22T04:02:45.997Z,58.50
2023-05-22T04:05:15.068Z,58.30
2023-05-22T04:07:44.151Z,58.00
2023-05-22T04:10:13.534Z,58.00
2023-05-22T04:12:42.523Z,57.40
2023-05-22T04:15:11.778Z,57.40
2023-05-22T04:17:45.327Z,57.40
2023-05-22T04:20:14.894Z,57.30
2023-05-22T04:22:45.530Z,57.50
2023-05-22T04:25:14.830Z,57.20
2023-05-22T04:27:43.989Z,56.50
2023-05-22T04:30:13.154Z,56.40
2023-05-22T04:32:42.420Z,56.40
2023-05-22T04:35:13.496Z,56.40
2023-05-22T04:37:43.501Z,55.90
2023-05-22T04:40:13.059Z,56.20
2023-05-22T04:42:43.431Z,56.40
2023-05-22T04:45:15.152Z,56.20
2023-05-22T04:47:44.174Z,56.00
2023-05-22T04:50:13.414Z,55.80
2023-05-22T04:52:42.505Z,55.90
2023-05-22T04:55:13.294Z,55.90
2023-05-22T04:57:48.410Z,56.00
2023-05-22T05:00:18.250Z,55.50
2023-05-22T05:02:47.605Z,54.60
2023-05-22T05:05:17.096Z,55.00
2023-05-22T05:07:47.724Z,55.30
2023-05-22T05:10:18.361Z,55.40
2023-05-22T05:12:47.669Z,54.80
2023-05-22T05:15:16.945Z,54.90
2023-05-22T05:17:46.000Z,54.40
2023-05-22T05:20:15.726Z,54.90
2023-05-22T05:22:46.454Z,54.40
2023-05-22T05:25:15.902Z,54.40
2023-05-22T05:27:44.953Z,54.20
2023-05-22T05:30:14.106Z,54.10
2023-05-22T05:32:43.173Z,53.90
2023-05-22T05:35:12.280Z,53.90
2023-05-22T05:37:41.251Z,53.90
2023-05-22T05:40:11.010Z,53.40
2023-05-22T05:42:40.040Z,53.50
2023-05-22T05:45:09.544Z,54.00
2023-05-22T05:47:38.639Z,53.90
2023-05-22T05:50:16.898Z,53.50
2023-05-22T05:52:46.348Z,52.20
2023-05-22T05:55:15.350Z,53.00
2023-05-22T05:57:47.533Z,53.20
2023-05-22T06:00:17.232Z,54.10
2023-05-22T06:02:50.668Z,53.80
2023-05-22T06:05:20.627Z,53.70
2023-05-22T06:07:49.796Z,53.60
2023-05-22T06:10:18.761Z,53.80
2023-05-22T06:12:47.723Z,53.60
2023-05-22T06:15:16.834Z,53.40
2023-05-22T06:17:45.853Z,53.40
2023-05-22T06:20:15.619Z,52.50
2023-05-22T06:22:44.643Z,53.10
2023-05-22T06:25:13.888Z,53.30
2023-05-22T06:27:42.893Z,53.00
2023-05-22T06:30:13.341Z,53.00
2023-05-22T06:32:42.748Z,51.80
2023-05-22T06:35:13.031Z,52.40
2023-05-22T06:37:44.191Z,52.40
2023-05-22T06:40:13.524Z,52.10
2023-05-22T06:42:42.623Z,51.60
2023-05-22T06:45:12.316Z,51.80
2023-05-22T06:47:41.476Z,50.60
2023-05-22T06:50:11.938Z,51.00
2023-05-22T06:52:40.917Z,51.00
2023-05-22T06:55:10.341Z,51.40
2023-05-22T06:57:39.432Z,51.50
2023-05-22T07:00:10.881Z,51.00
2023-05-22T07:02:40.674Z,51.40
2023-05-22T07:05:10.376Z,50.80
2023-05-22T07:07:39.410Z,51.10
2023-05-22T07:10:09.239Z,50.80
2023-05-22T07:12:38.685Z,51.10
2023-05-22T07:15:11.678Z,51.20
2023-05-22T07:17:42.829Z,50.80
2023-05-22T07:20:13.274Z,47.10
2023-05-22T07:22:42.262Z,50.50
2023-05-22T07:25:14.065Z,50.50
2023-05-22T07:27:44.629Z,50.80
2023-05-22T07:30:17.104Z,50.60
2023-05-22T07:32:46.111Z,50.50
2023-05-22T07:35:15.221Z,50.80
2023-05-22T07:37:44.330Z,50.20
2023-05-22T07:40:13.849Z,50.40
2023-05-22T07:42:42.903Z,50.50
2023-05-22T07:45:12.700Z,50.80
2023-05-22T07:47:44.841Z,51.00
2023-05-22T07:50:13.852Z,50.60
2023-05-22T07:52:42.973Z,51.10
2023-05-22T07:55:12.299Z,50.90
2023-05-22T07:57:41.862Z,50.50
2023-05-22T08:00:15.024Z,50.80
2023-05-22T08:02:44.168Z,50.50
2023-05-22T08:05:14.260Z,50.30
2023-05-22T08:07:43.342Z,50.50
2023-05-22T08:10:19.347Z,50.80
2023-05-22T08:12:48.493Z,50.80
2023-05-22T08:15:17.559Z,51.30
2023-05-22T08:17:46.771Z,51.50
2023-05-22T08:20:16.282Z,51.50
2023-05-22T08:22:45.336Z,51.10
2023-05-22T08:25:14.339Z,51.40
2023-05-22T08:27:43.352Z,50.50
2023-05-22T08:30:12.732Z,51.00
2023-05-22T08:32:41.868Z,51.20
2023-05-22T08:35:11.349Z,50.90
2023-05-22T08:37:40.393Z,51.10
2023-05-22T08:40:16.363Z,50.80
2023-05-22T08:42:45.468Z,51.00
2023-05-22T08:45:17.192Z,51.00
2023-05-22T08:47:48.600Z,50.60
2023-05-22T08:50:18.642Z,50.70
2023-05-22T08:52:58.495Z,50.60
2023-05-22T08:55:27.746Z,50.50
2023-05-22T08:57:58.751Z,50.60
2023-05-22T09:00:27.877Z,50.80
2023-05-22T09:02:57.096Z,51.10
2023-05-22T09:05:29.391Z,50.80
2023-05-22T09:08:08.341Z,51.00
2023-05-22T09:10:45.771Z,51.10
2023-05-22T09:13:27.658Z,50.70
2023-05-22T09:16:09.663Z,50.40
2023-05-22T09:18:43.520Z,51.00
2023-05-22T09:21:28.878Z,51.10
2023-05-22T09:24:03.154Z,51.30
2023-05-22T09:26:34.118Z,51.10
2023-05-22T09:29:07.336Z,51.20
2023-05-22T09:31:44.350Z,51.10
2023-05-22T09:34:18.883Z,51.00
2023-05-22T09:36:48.019Z,50.90
2023-05-22T09:39:17.034Z,51.50
2023-05-22T09:41:46.718Z,51.90
2023-05-22T09:44:17.182Z,52.30
2023-05-22T09:46:54.920Z,52.90
2023-05-22T09:49:24.221Z,53.60
2023-05-22T09:51:55.895Z,54.20
2023-05-22T09:54:28.815Z,54.40
2023-05-22T09:57:16.543Z,54.70
2023-05-22T09:59:55.241Z,55.70
2023-05-22T10:02:26.913Z,55.50
2023-05-22T10:04:56.323Z,57.20
2023-05-22T10:07:30.541Z,56.20
2023-05-22T10:10:05.143Z,57.50
2023-05-22T10:12:38.011Z,56.70
2023-05-22T10:15:10.505Z,56.50
2023-05-22T10:17:41.361Z,56.60
2023-05-22T10:20:11.638Z,56.70
2023-05-22T10:22:40.929Z,56.20
2023-05-22T10:25:10.866Z,56.20
2023-05-22T10:27:42.011Z,56.20
2023-05-22T10:30:25.730Z,56.60
2023-05-22T10:33:00.428Z,56.70
2023-05-22T10:35:54.551Z,59.70
2023-05-22T10:38:54.114Z,57.10
2023-05-22T10:41:27.540Z,57.80
2023-05-22T10:43:59.376Z,57.30
2023-05-22T10:46:33.533Z,57.50
2023-05-22T10:49:02.952Z,57.80
2023-05-22T10:51:35.493Z,58.00
2023-05-22T10:54:06.540Z,59.20
2023-05-22T10:56:36.967Z,60.10
2023-05-22T10:59:09.125Z,61.60
2023-05-22T11:01:39.144Z,60.80
2023-05-22T11:04:13.576Z,62.10
2023-05-22T11:06:47.542Z,61.50
2023-05-22T11:09:31.984Z,61.40
2023-05-22T11:12:22.615Z,61.80
2023-05-22T11:15:01.132Z,62.00
2023-05-22T11:17:34.875Z,62.50
2023-05-22T11:20:11.657Z,61.60
2023-05-22T11:22:45.118Z,61.70
2023-05-22T11:25:21.865Z,62.70
2023-05-22T11:27:51.279Z,62.30
2023-05-22T11:30:20.633Z,62.90
2023-05-22T11:32:50.010Z,63.20
2023-05-22T11:35:21.028Z,63.70
2023-05-22T11:37:51.610Z,63.30
2023-05-22T11:40:22.941Z,63.60
2023-05-22T11:42:52.744Z,64.20
2023-05-22T11:45:22.641Z,64.40
2023-05-22T11:47:52.124Z,64.50
2023-05-22T11:50:33.403Z,65.00
2023-05-22T11:53:09.778Z,64.30
2023-05-22T11:55:38.787Z,64.80
2023-05-22T11:58:07.865Z,65.30
2023-05-22T12:00:37.044Z,65.30
2023-05-22T12:03:07.798Z,66.50
2023-05-22T12:05:37.318Z,66.80
2023-05-22T12:08:06.527Z,67.00
2023-05-22T12:10:35.606Z,66.90
2023-05-22T12:13:04.616Z,67.90
2023-05-22T12:15:33.600Z,66.90
2023-05-22T12:18:02.702Z,66.40
2023-05-22T12:20:32.724Z,67.20
2023-05-22T12:23:01.768Z,67.80
2023-05-22T12:25:38.552Z,66.40
2023-05-22T12:28:10.438Z,67.60
2023-05-22T12:30:43.715Z,68.10
2023-05-22T12:33:16.235Z,68.00
2023-05-22T12:35:45.282Z,67.80
2023-05-22T12:38:14.738Z,67.40
2023-05-22T12:40:43.969Z,67.00
2023-05-22T12:43:13.023Z,66.90
2023-05-22T12:45:44.888Z,67.00
2023-05-22T12:48:14.324Z,67.80
2023-05-22T12:50:43.783Z,68.30
2023-05-22T12:53:13.193Z,67.40
2023-05-22T12:55:42.271Z,67.80
2023-05-22T12:58:11.279Z,70.50
2023-05-22T13:00:40.573Z,68.80
2023-05-22T13:03:10.085Z,68.40
2023-05-22T13:05:39.313Z,69.80
2023-05-22T13:08:08.503Z,68.90
2023-05-22T13:10:37.515Z,67.90
2023-05-22T13:13:06.560Z,68.10
2023-05-22T13:15:37.390Z,68.90
2023-05-22T13:18:06.539Z,68.40
2023-05-22T13:20:38.445Z,68.50
2023-05-22T13:23:08.591Z,68.50
2023-05-22T13:25:37.801Z,68.70
2023-05-22T13:28:06.862Z,68.30
2023-05-22T13:30:36.079Z,68.40
2023-05-22T13:33:05.126Z,68.80
2023-05-22T13:35:34.310Z,68.70
2023-05-22T13:38:03.387Z,68.90
2023-05-22T13:40:32.431Z,68.70
2023-05-22T13:43:01.562Z,69.00
2023-05-22T13:45:30.734Z,69.00
2023-05-22T13:47:59.940Z,69.30
2023-05-22T13:50:29.013Z,69.30
2023-05-22T13:52:57.987Z,68.90
2023-05-22T13:55:27.006Z,69.30
2023-05-22T13:57:55.982Z,68.90
2023-05-22T14:00:24.997Z,69.00
2023-05-22T14:02:54.076Z,68.70
2023-05-22T14:05:23.328Z,69.20
2023-05-22T14:07:52.545Z,69.20
2023-05-22T14:10:21.570Z,69.30
2023-05-22T14:12:50.665Z,69.40
2023-05-22T14:15:19.719Z,69.70
2023-05-22T14:17:49.044Z,69.90
2023-05-22T14:20:18.160Z,69.70
2023-05-22T14:22:57.113Z,69.60
2023-05-22T14:25:28.015Z,69.70
2023-05-22T14:27:57.098Z,70.10
2023-05-22T14:30:26.134Z,70.10
2023-05-22T14:32:55.158Z,70.30
2023-05-22T14:35:24.290Z,70.00
2023-05-22T14:37:53.264Z,69.60
2023-05-22T14:40:22.581Z,70.30
2023-05-22T14:42:53.976Z,69.70
2023-05-22T14:45:23.589Z,70.70
2023-05-22T14:47:52.801Z,70.00
2023-05-22T14:50:22.000Z,69.90
2023-05-22T14:52:51.536Z,69.60
2023-05-22T14:55:22.272Z,70.00
2023-05-22T14:57:51.346Z,70.20
2023-05-22T15:00:21.202Z,69.90
2023-05-22T15:02:50.341Z,69.80
2023-05-22T15:05:19.707Z,69.80
2023-05-22T15:07:51.230Z,69.90
2023-05-22T15:10:21.684Z,69.80
2023-05-22T15:12:50.736Z,70.20
2023-05-22T15:15:19.889Z,70.00
2023-05-22T15:17:48.903Z,70.20
2023-05-22T15:20:18.063Z,70.10
2023-05-22T15:22:47.034Z,70.20
2023-05-22T15:25:16.224Z,70.20
2023-05-22T15:27:45.516Z,70.00
2023-05-22T15:30:16.093Z,69.90
2023-05-22T15:32:45.722Z,70.10
2023-05-22T15:35:17.647Z,69.60
2023-05-22T15:37:46.774Z,69.80
2023-05-22T15:40:18.448Z,69.60
2023-05-22T15:42:47.437Z,70.10
2023-05-22T15:45:16.492Z,69.80
2023-05-22T15:47:45.644Z,69.80
2023-05-22T15:50:14.985Z,69.80
2023-05-22T15:52:43.956Z,69.80
2023-05-22T15:55:13.053Z,69.70
2023-05-22T15:57:42.075Z,69.60
2023-05-22T16:00:12.208Z,69.90
2023-05-22T16:02:41.347Z,69.90
2023-05-22T16:05:10.702Z,70.10
2023-05-22T16:07:39.714Z,70.30
2023-05-22T16:10:09.424Z,70.20
2023-05-22T16:12:40.854Z,69.70
2023-05-22T16:15:10.653Z,71.10
2023-05-22T16:17:40.857Z,70.40
2023-05-22T16:20:10.523Z,70.60
2023-05-22T16:22:48.218Z,70.50
2023-05-22T16:25:19.252Z,70.80
2023-05-22T16:27:48.210Z,70.80
2023-05-22T16:30:18.350Z,70.90
2023-05-22T16:32:50.697Z,70.80
2023-05-22T16:35:20.863Z,71.20
2023-05-22T16:37:49.994Z,70.90
2023-05-22T16:40:19.810Z,70.90
2023-05-22T16:42:48.899Z,71.50
2023-05-22T16:45:17.961Z,71.80
2023-05-22T16:47:47.043Z,72.10
2023-05-22T16:50:16.106Z,71.80
2023-05-22T16:52:45.114Z,72.00
2023-05-22T16:55:14.116Z,72.20
2023-05-22T16:57:43.911Z,72.20
2023-05-22T17:00:13.499Z,72.50
2023-05-22T17:02:44.149Z,72.50
2023-05-22T17:05:13.272Z,72.80
2023-05-22T17:07:42.457Z,72.60
2023-05-22T17:10:12.022Z,72.70
2023-05-22T17:12:40.956Z,72.30
2023-05-22T17:15:10.397Z,72.70
2023-05-22T17:17:39.482Z,72.60
2023-05-22T17:20:09.095Z,72.50
2023-05-22T17:22:39.939Z,72.70
2023-05-22T17:25:09.475Z,73.30
2023-05-22T17:27:38.622Z,72.50
2023-05-22T17:30:09.048Z,73.40
2023-05-22T17:32:38.234Z,73.50
2023-05-22T17:35:07.817Z,73.30
2023-05-22T17:37:36.871Z,73.30
2023-05-22T17:40:06.337Z,74.50
2023-05-22T17:42:35.369Z,74.00
2023-05-22T17:45:04.374Z,74.00
2023-05-22T17:47:33.480Z,74.20
2023-05-22T17:50:02.564Z,73.60
2023-05-22T17:52:31.506Z,73.90
2023-05-22T17:55:00.506Z,74.50
2023-05-22T17:57:29.603Z,74.60
2023-05-22T17:59:58.614Z,74.50
2023-05-22T18:02:29.474Z,74.90
2023-05-22T18:04:58.606Z,74.90
2023-05-22T18:07:27.665Z,75.00
2023-05-22T18:09:56.937Z,74.80
2023-05-22T18:12:31.720Z,75.20
2023-05-22T18:15:01.504Z,74.80
2023-05-22T18:17:30.527Z,75.00
2023-05-22T18:19:59.643Z,75.10
2023-05-22T18:22:28.709Z,74.60
2023-05-22T18:24:57.817Z,74.90
2023-05-22T18:27:26.812Z,75.00
2023-05-22T18:29:56.793Z,75.00
2023-05-22T18:32:38.054Z,75.10
2023-05-22T18:35:08.423Z,75.10
2023-05-22T18:38:40.392Z,75.10
2023-05-22T18:41:09.683Z,76.10
2023-05-22T18:44:33.602Z,75.50
2023-05-22T18:47:04.517Z,76.40
2023-05-22T18:49:33.948Z,75.60
2023-05-22T18:52:03.106Z,75.60
2023-05-22T18:54:32.179Z,75.60
2023-05-22T18:57:01.263Z,75.70
2023-05-22T18:59:30.410Z,75.70
2023-05-22T19:01:59.415Z,75.70
2023-05-22T19:04:28.440Z,75.80
2023-05-22T19:06:57.653Z,75.80
2023-05-22T19:09:26.924Z,76.00
2023-05-22T19:11:55.918Z,76.00
2023-05-22T19:14:24.899Z,76.00
2023-05-22T19:16:54.014Z,76.00
2023-05-22T19:19:23.266Z,76.00
2023-05-22T19:21:52.338Z,76.30
2023-05-22T19:24:21.552Z,76.20
2023-05-22T19:26:50.544Z,76.30
2023-05-22T19:29:19.532Z,76.40
2023-05-22T19:31:48.558Z,76.50
2023-05-22T19:34:17.649Z,76.50
2023-05-22T19:36:46.741Z,76.50
2023-05-22T19:39:15.755Z,76.70
2023-05-22T19:41:44.799Z,76.50
2023-05-22T19:44:13.927Z,76.30
2023-05-22T19:46:43.009Z,76.20
2023-05-22T19:49:12.152Z,76.30
2023-05-22T19:51:41.157Z,76.30
2023-05-22T19:54:10.408Z,76.10
2023-05-22T19:56:39.451Z,76.30
2023-05-22T19:59:08.411Z,76.30
2023-05-22T20:01:37.428Z,76.20
2023-05-22T20:04:06.534Z,76.10
2023-05-22T20:06:36.276Z,76.00
2023-05-22T20:09:07.035Z,76.10
2023-05-22T20:11:36.036Z,76.40
2023-05-22T20:14:05.055Z,76.40
2023-05-22T20:16:34.203Z,76.60
2023-05-22T20:19:05.104Z,76.80
2023-05-22T20:21:34.140Z,78.10
2023-05-22T20:24:18.652Z,78.00
2023-05-22T20:26:48.119Z,78.60
2023-05-22T20:29:17.281Z,78.70
2023-05-22T20:31:47.797Z,79.00
2023-05-22T20:34:16.906Z,78.40
2023-05-22T20:36:47.763Z,78.70
2023-05-22T20:39:17.485Z,77.50
2023-05-22T20:41:46.749Z,77.60
2023-05-22T20:44:17.517Z,79.10
2023-05-22T20:46:46.557Z,80.10
2023-05-22T20:49:15.555Z,80.10
2023-05-22T20:51:45.639Z,81.70
2023-05-22T20:54:14.756Z,81.60
2023-05-22T20:56:43.977Z,81.70
2023-05-22T20:59:13.116Z,82.20
2023-05-22T21:01:42.190Z,79.10
2023-05-22T21:04:11.340Z,80.40
2023-05-22T21:06:41.193Z,80.10
2023-05-22T21:09:10.192Z,78.30
2023-05-22T21:11:39.200Z,79.40
2023-05-22T21:14:08.147Z,80.40
2023-05-22T21:16:39.486Z,80.30
2023-05-22T21:19:08.824Z,79.10
2023-05-22T21:21:42.728Z,78.60
2023-05-22T21:24:11.438Z,78.60
2023-05-22T21:26:41.900Z,80.70
2023-05-22T21:29:10.995Z,78.80
2023-05-22T21:31:40.083Z,79.40
2023-05-22T21:34:09.558Z,78.40
2023-05-22T21:36:38.621Z,78.50
2023-05-22T21:39:07.662Z,78.20
2023-05-22T21:41:36.792Z,78.30
2023-05-22T21:44:05.817Z,78.00
2023-05-22T21:46:34.782Z,78.00
2023-05-22T21:49:04.812Z,77.90
2023-05-22T21:51:34.242Z,77.90
2023-05-22T21:54:03.218Z,77.70
2023-05-22T21:56:32.480Z,77.80
2023-05-22T21:59:01.569Z,77.80
2023-05-22T22:01:30.724Z,77.90
2023-05-22T22:03:59.922Z,78.20
2023-05-22T22:06:29.117Z,78.00
2023-05-22T22:09:00.891Z,78.20
2023-05-22T22:11:29.948Z,77.80
2023-05-22T22:13:59.019Z,78.20
2023-05-22T22:16:29.019Z,78.30
2023-05-22T22:18:59.265Z,78.50
2023-05-22T22:21:29.239Z,78.70
2023-05-22T22:23:58.525Z,78.50
2023-05-22T22:26:31.830Z,78.90
2023-05-22T22:29:01.067Z,78.80
2023-05-22T22:31:30.128Z,79.20
2023-05-22T22:33:59.214Z,78.60
2023-05-22T22:36:28.186Z,79.10
2023-05-22T22:38:57.318Z,79.40
2023-05-22T22:41:26.358Z,79.60
2023-05-22T22:43:55.441Z,79.00
2023-05-22T22:46:24.593Z,79.30
2023-05-22T22:48:53.672Z,79.40
2023-05-22T22:51:22.928Z,79.30
2023-05-22T22:53:51.928Z,80.60
2023-05-22T22:56:21.061Z,79.40
2023-05-22T22:58:50.066Z,79.20
2023-05-22T23:01:19.199Z,79.70
2023-05-22T23:03:48.223Z,79.70
2023-05-22T23:06:19.375Z,80.10
2023-05-22T23:08:48.410Z,80.10
2023-05-22T23:11:18.452Z,80.30
2023-05-22T23:13:47.472Z,79.60
2023-05-22T23:16:16.621Z,79.40
2023-05-22T23:18:45.736Z,79.70
2023-05-22T23:21:14.845Z,79.80
2023-05-22T23:23:43.850Z,79.80
2023-05-22T23:26:12.854Z,80.20
2023-05-22T23:28:41.869Z,80.00
2023-05-22T23:31:10.922Z,79.80
2023-05-22T23:33:39.877Z,79.90
2023-05-22T23:36:09.052Z,79.90
2023-05-22T23:38:38.152Z,80.00
2023-05-22T23:41:07.200Z,79.90
2023-05-22T23:43:36.160Z,79.60
2023-05-22T23:46:05.217Z,79.90
2023-05-22T23:48:34.273Z,79.90
2023-05-22T23:51:04.616Z,79.90
2023-05-22T23:53:33.620Z,79.90
2023-05-22T23:56:02.635Z,80.10
2023-05-22T23:58:33.114Z,80.30
